This is the latest recevied weather packets stored in our database for station/object KI7JYE. If no packets are shown the sender has not sent any weather packets the latest 10 day(s).
| Time | Temp. | Humidity | Pressure | Rain* | Wind** | Luminosity | Snow |
|---|---|---|---|---|---|---|---|
| 1777750101 | 17.22° C | 71% | 1014.1 hPa | 0 mm | - | 739 W/m² | - |
| 1777749799 | 16.11° C | 73% | 1014.2 hPa | 0 mm | - | 732 W/m² | - |
| 1777749496 | 15.56° C | 77% | 1014.1 hPa | 0 mm | - | 722 W/m² | - |
| 1777749194 | 15° C | 76% | 1014.4 hPa | 0 mm | - | 744 W/m² | - |
| 1777748891 | 14.44° C | 78% | 1014.6 hPa | 0 mm | - | 731 W/m² | - |
| 1777748588 | 15° C | 77% | 1014.4 hPa | 0 mm | - | 750 W/m² | - |
| 1777748283 | 14.44° C | 78% | 1014.3 hPa | 0 mm | - | 562 W/m² | - |
| 1777747979 | 14.44° C | 79% | 1014.6 hPa | 0 mm | - | 631 W/m² | - |
| 1777747676 | 13.33° C | 82% | 1014.7 hPa | 0 mm | - | 614 W/m² | - |
| 1777747372 | 12.78° C | 82% | 1014.6 hPa | 0 mm | - | 293 W/m² | - |
| 1777747069 | 12.78° C | 83% | 1014.8 hPa | 0 mm | - | 171 W/m² | - |
| 1777746765 | 12.22° C | 84% | 1014.5 hPa | 0 mm | - | 134 W/m² | - |
| 1777746460 | 12.22° C | 83% | 1014.5 hPa | 0 mm | - | 118 W/m² | - |
| 1777746156 | 12.22° C | 83% | 1014.6 hPa | 0 mm | - | 83 W/m² | - |
| 1777745852 | 12.22° C | 83% | 1014.5 hPa | 0 mm | - | 81 W/m² | - |
| 1777745552 | 12.78° C | 82% | 1014.7 hPa | 0 mm | - | 83 W/m² | - |
| 1777745249 | 12.78° C | 82% | 1014.9 hPa | 0 mm | - | 115 W/m² | - |
| 1777744946 | 12.78° C | 81% | 1014.6 hPa | 0 mm | - | 136 W/m² | - |
| 1777744646 | 13.33° C | 81% | 1014.5 hPa | 0 mm | - | 220 W/m² | - |
| 1777744341 | 12.78° C | 84% | 1014.7 hPa | 0 mm | - | 626 W/m² | - |
| 1777744038 | 12.78° C | 84% | 1014.9 hPa | 0 mm | - | 278 W/m² | - |
| 1777743735 | 12.22° C | 83% | 1015.1 hPa | 0 mm | - | 157 W/m² | - |
| 1777743432 | 12.78° C | 82% | 1015.2 hPa | 0 mm | - | 146 W/m² | - |
| 1777743129 | 12.22° C | 82% | 1015.1 hPa | 0 mm | - | 271 W/m² | - |
| 1777742828 | 12.22° C | 82% | 1015.1 hPa | 0 mm | - | 169 W/m² | - |
* Rain latest hour (hover to see other rain measurements)
** Current wind speed in m/s (hover to see current wind gust speed)